createdAt,value
2023-03-14T00:00:06.872Z,9.35
2023-03-14T00:02:43.245Z,9.37
2023-03-14T00:05:19.361Z,9.39
2023-03-14T00:07:53.743Z,9.35
2023-03-14T00:10:28.784Z,9.20
2023-03-14T00:13:03.246Z,9.24
2023-03-14T00:15:38.222Z,9.28
2023-03-14T00:18:12.844Z,9.22
2023-03-14T00:20:48.844Z,9.17
2023-03-14T00:23:23.072Z,9.13
2023-03-14T00:26:01.400Z,9.27
2023-03-14T00:28:35.741Z,9.32
2023-03-14T00:31:12.333Z,9.22
2023-03-14T00:33:48.091Z,9.13
2023-03-14T00:36:24.726Z,9.23
2023-03-14T00:38:59.125Z,9.17
2023-03-14T00:41:33.860Z,9.16
2023-03-14T00:44:08.100Z,9.15
2023-03-14T00:46:42.581Z,9.07
2023-03-14T00:49:16.888Z,9.00
2023-03-14T00:51:53.036Z,8.89
2023-03-14T00:54:27.314Z,9.00
2023-03-14T00:57:01.899Z,8.87
2023-03-14T00:59:36.237Z,8.78
2023-03-14T01:02:11.420Z,8.79
2023-03-14T01:04:45.731Z,8.78
2023-03-14T01:07:21.637Z,8.76
2023-03-14T01:09:57.011Z,8.80
2023-03-14T01:12:31.498Z,8.81
2023-03-14T01:15:06.944Z,8.78
2023-03-14T01:17:41.690Z,8.74
2023-03-14T01:20:17.647Z,8.77
2023-03-14T01:22:53.618Z,8.72
2023-03-14T01:25:28.003Z,8.62
2023-03-14T01:28:02.653Z,8.48
2023-03-14T01:30:37.539Z,8.49
2023-03-14T01:33:12.476Z,8.42
2023-03-14T01:35:47.139Z,8.44
2023-03-14T01:38:23.136Z,8.39
2023-03-14T01:41:01.938Z,8.50
2023-03-14T01:43:36.840Z,8.41
2023-03-14T01:46:38.026Z,8.37
2023-03-14T01:49:23.134Z,8.43
2023-03-14T01:52:02.983Z,8.64
2023-03-14T01:54:41.411Z,8.70
2023-03-14T01:57:19.680Z,8.70
2023-03-14T01:59:58.895Z,8.58
2023-03-14T02:02:33.628Z,8.64
2023-03-14T02:05:09.046Z,8.63
2023-03-14T02:07:51.740Z,8.67
2023-03-14T02:10:30.880Z,8.73
2023-03-14T02:13:08.094Z,8.74
2023-03-14T02:15:43.633Z,8.70
2023-03-14T02:18:19.748Z,8.74
2023-03-14T02:21:01.481Z,8.73
2023-03-14T02:23:46.177Z,8.82
2023-03-14T02:26:34.085Z,8.85
2023-03-14T02:29:10.312Z,8.91
2023-03-14T02:31:45.390Z,8.85
2023-03-14T02:34:20.061Z,8.83
2023-03-14T02:36:55.029Z,8.82
2023-03-14T02:39:38.746Z,8.81
2023-03-14T02:42:14.378Z,8.60
2023-03-14T02:44:57.001Z,8.51
2023-03-14T02:47:32.868Z,8.42
2023-03-14T02:50:15.119Z,8.43
2023-03-14T02:52:49.516Z,8.38
2023-03-14T02:55:26.782Z,8.33
2023-03-14T02:58:01.646Z,8.35
2023-03-14T03:00:38.797Z,8.37
2023-03-14T03:03:14.812Z,8.43
2023-03-14T03:05:51.533Z,8.45
2023-03-14T03:08:28.339Z,8.48
2023-03-14T03:11:04.054Z,8.43
2023-03-14T03:13:39.199Z,8.50
2023-03-14T03:16:16.384Z,8.43
2023-03-14T03:18:50.765Z,8.45
2023-03-14T03:21:25.529Z,8.38
2023-03-14T03:23:59.730Z,8.40
2023-03-14T03:26:35.669Z,8.32
2023-03-14T03:29:12.041Z,8.35
2023-03-14T03:31:50.440Z,8.32
2023-03-14T03:34:30.805Z,8.34
2023-03-14T03:37:05.498Z,8.42
2023-03-14T03:39:40.916Z,8.34
2023-03-14T03:42:15.713Z,8.37
2023-03-14T03:44:50.954Z,8.43
2023-03-14T03:47:27.046Z,8.48
2023-03-14T03:50:02.759Z,8.56
2023-03-14T03:52:38.047Z,8.63
2023-03-14T03:55:12.421Z,8.69
2023-03-14T03:57:46.963Z,8.84
2023-03-14T04:00:22.246Z,8.85
2023-03-14T04:02:58.446Z,8.87
2023-03-14T04:05:33.145Z,8.93
2023-03-14T04:08:08.357Z,8.90
2023-03-14T04:10:43.021Z,8.96
2023-03-14T04:13:17.754Z,8.89
2023-03-14T04:15:53.012Z,8.89
2023-03-14T04:18:31.442Z,8.68
2023-03-14T04:21:06.133Z,8.67
2023-03-14T04:23:41.953Z,8.72
2023-03-14T04:26:16.170Z,8.79
2023-03-14T04:28:51.037Z,8.75
2023-03-14T04:31:25.838Z,8.74
2023-03-14T04:34:01.839Z,8.74
2023-03-14T04:36:40.149Z,8.70
2023-03-14T04:39:16.380Z,8.80
2023-03-14T04:41:53.496Z,8.73
2023-03-14T04:44:28.279Z,8.74
2023-03-14T04:47:02.796Z,8.75
2023-03-14T04:49:39.205Z,8.78
2023-03-14T04:52:14.295Z,8.70
2023-03-14T04:54:49.291Z,8.60
2023-03-14T04:57:24.522Z,8.77
2023-03-14T04:59:59.717Z,8.74
2023-03-14T05:02:35.374Z,8.78
2023-03-14T05:05:11.537Z,10.03
2023-03-14T05:07:46.266Z,10.97
2023-03-14T05:10:22.476Z,9.88
2023-03-14T05:12:57.289Z,9.49
2023-03-14T05:15:32.319Z,9.27
2023-03-14T05:18:07.462Z,9.18
2023-03-14T05:20:44.221Z,9.17
2023-03-14T05:23:19.932Z,9.10
2023-03-14T05:25:55.047Z,9.02
2023-03-14T05:28:29.970Z,9.03
2023-03-14T05:31:09.129Z,9.06
2023-03-14T05:33:43.665Z,8.99
2023-03-14T05:36:22.031Z,9.17
2023-03-14T05:38:57.122Z,9.06
2023-03-14T05:41:31.895Z,9.23
2023-03-14T05:44:06.597Z,11.73
2023-03-14T05:46:42.266Z,12.22
2023-03-14T05:49:16.844Z,11.09
2023-03-14T05:51:53.541Z,10.36
2023-03-14T05:54:28.148Z,10.26
2023-03-14T05:57:02.674Z,9.97
2023-03-14T05:59:37.160Z,9.91
2023-03-14T06:02:11.943Z,9.89
2023-03-14T06:04:47.795Z,9.95
2023-03-14T06:07:23.566Z,9.83
2023-03-14T06:09:59.538Z,10.73
2023-03-14T06:12:34.258Z,11.51
2023-03-14T06:15:10.107Z,11.00
2023-03-14T06:17:44.487Z,12.87
2023-03-14T06:20:24.433Z,11.80
2023-03-14T06:23:00.101Z,11.40
2023-03-14T06:25:35.796Z,11.24
2023-03-14T06:28:10.153Z,11.25
2023-03-14T06:30:45.443Z,11.23
2023-03-14T06:33:20.282Z,11.29
2023-03-14T06:35:55.691Z,11.38
2023-03-14T06:38:31.592Z,11.47
2023-03-14T06:41:07.099Z,11.45
2023-03-14T06:43:42.114Z,11.40
2023-03-14T06:46:17.676Z,11.46
2023-03-14T06:48:52.310Z,11.43
2023-03-14T06:51:27.106Z,11.49
2023-03-14T06:54:02.995Z,11.54
2023-03-14T06:56:37.555Z,11.73
2023-03-14T06:59:12.304Z,11.83
2023-03-14T07:02:59.488Z,12.53
2023-03-14T07:05:35.477Z,12.53
2023-03-14T07:08:10.232Z,12.15
2023-03-14T07:10:44.993Z,12.26
2023-03-14T07:13:19.371Z,12.94
2023-03-14T07:15:54.747Z,12.74
2023-03-14T07:18:30.568Z,12.74
2023-03-14T07:21:05.525Z,12.77
2023-03-14T07:23:40.356Z,12.87
2023-03-14T07:26:15.158Z,12.98
2023-03-14T07:28:51.568Z,13.10
2023-03-14T07:31:26.523Z,13.19
2023-03-14T07:34:02.453Z,13.25
2023-03-14T07:36:37.463Z,13.42
2023-03-14T07:39:11.930Z,13.57
2023-03-14T07:41:46.866Z,13.71
2023-03-14T07:44:26.506Z,13.97
2023-03-14T07:47:01.109Z,14.18
2023-03-14T07:49:36.892Z,14.33
2023-03-14T07:52:11.411Z,14.48
2023-03-14T07:54:45.646Z,14.67
2023-03-14T07:57:20.247Z,14.78
2023-03-14T07:59:54.623Z,14.95
2023-03-14T08:02:29.243Z,15.08
2023-03-14T08:05:05.553Z,15.22
2023-03-14T08:07:39.831Z,15.21
2023-03-14T08:10:23.141Z,15.23
2023-03-14T08:12:58.836Z,15.31
2023-03-14T08:15:33.653Z,15.35
2023-03-14T08:18:08.687Z,15.53
2023-03-14T08:20:44.938Z,15.73
2023-03-14T08:23:19.160Z,15.96
2023-03-14T08:25:54.297Z,16.14
2023-03-14T08:28:31.711Z,16.30
2023-03-14T08:31:07.116Z,16.44
2023-03-14T08:33:41.556Z,16.42
2023-03-14T08:36:17.620Z,16.61
2023-03-14T08:38:51.830Z,16.76
2023-03-14T08:41:26.807Z,16.85
2023-03-14T08:44:01.582Z,16.95
2023-03-14T08:46:37.075Z,17.01
2023-03-14T08:49:11.805Z,17.12
2023-03-14T08:51:47.730Z,17.12
2023-03-14T08:54:22.009Z,17.19
2023-03-14T08:56:56.586Z,17.50
2023-03-14T08:59:31.121Z,17.40
2023-03-14T09:02:06.287Z,17.54
2023-03-14T09:04:40.833Z,17.58
2023-03-14T09:07:16.832Z,17.71
2023-03-14T09:09:51.137Z,17.80
2023-03-14T09:12:25.640Z,17.94
2023-03-14T09:14:59.930Z,17.94
2023-03-14T09:17:34.418Z,18.02
2023-03-14T09:20:11.196Z,18.12
2023-03-14T09:22:50.368Z,18.00
2023-03-14T09:25:24.748Z,18.06
2023-03-14T09:27:59.597Z,18.10
2023-03-14T09:30:34.016Z,18.10
2023-03-14T09:33:08.559Z,18.12
2023-03-14T09:35:43.081Z,18.18
2023-03-14T09:38:21.410Z,18.20
2023-03-14T09:40:56.089Z,18.37
2023-03-14T09:43:34.095Z,18.40
2023-03-14T09:46:12.543Z,18.39
2023-03-14T09:48:48.005Z,18.50
2023-03-14T09:51:24.684Z,18.56
2023-03-14T09:54:01.614Z,18.64
2023-03-14T09:56:36.212Z,18.55
2023-03-14T09:59:15.927Z,18.74
2023-03-14T10:01:52.454Z,18.81
2023-03-14T10:04:28.722Z,19.01
2023-03-14T10:07:04.753Z,19.14
2023-03-14T10:09:40.925Z,19.16
2023-03-14T10:12:16.030Z,19.22
2023-03-14T10:14:52.443Z,19.34
2023-03-14T10:17:26.725Z,19.25
2023-03-14T10:20:07.030Z,19.32
2023-03-14T10:22:42.657Z,19.56
2023-03-14T10:25:29.405Z,19.41
2023-03-14T10:28:06.481Z,19.50
2023-03-14T10:30:46.093Z,19.44
2023-03-14T10:33:24.149Z,19.35
2023-03-14T10:36:01.524Z,19.23
2023-03-14T10:38:38.287Z,19.36
2023-03-14T10:41:21.569Z,20.01
2023-03-14T10:43:59.036Z,20.14
2023-03-14T10:46:35.269Z,20.04
2023-03-14T10:49:31.450Z,20.21
2023-03-14T10:52:30.863Z,20.23
2023-03-14T10:55:16.300Z,20.34
2023-03-14T10:57:52.591Z,20.74
2023-03-14T11:00:27.092Z,21.07
2023-03-14T11:03:10.912Z,21.17
2023-03-14T11:05:51.873Z,21.32
2023-03-14T11:08:33.817Z,21.25
2023-03-14T11:11:17.816Z,21.01
2023-03-14T11:14:04.468Z,20.99
2023-03-14T11:16:50.585Z,21.17
2023-03-14T11:19:35.854Z,20.78
2023-03-14T11:22:22.568Z,20.76
2023-03-14T11:25:17.691Z,20.86
2023-03-14T11:28:00.386Z,20.81
2023-03-14T11:30:41.599Z,20.95
2023-03-14T11:33:17.843Z,20.94
2023-03-14T11:35:57.674Z,20.54
2023-03-14T11:38:36.227Z,20.36
2023-03-14T11:41:16.435Z,20.22
2023-03-14T11:43:55.505Z,19.89
2023-03-14T11:46:36.741Z,19.87
2023-03-14T11:49:28.222Z,19.91
2023-03-14T11:52:08.299Z,20.56
2023-03-14T11:54:50.737Z,20.68
2023-03-14T11:57:26.241Z,20.43
2023-03-14T12:00:07.060Z,20.83
2023-03-14T12:02:55.779Z,20.63
2023-03-14T12:05:44.650Z,20.27
2023-03-14T12:08:36.957Z,20.21
2023-03-14T12:11:21.341Z,20.16
2023-03-14T12:13:56.437Z,20.02
2023-03-14T12:16:41.763Z,19.86
2023-03-14T12:19:37.323Z,19.84
2023-03-14T12:22:30.881Z,19.79
2023-03-14T12:25:15.735Z,19.75
2023-03-14T12:28:05.652Z,19.64
2023-03-14T12:30:41.642Z,19.62
2023-03-14T12:33:29.171Z,19.66
2023-03-14T12:36:13.200Z,19.70
2023-03-14T12:38:59.272Z,19.73
2023-03-14T12:41:41.258Z,19.79
2023-03-14T12:44:42.694Z,19.82
2023-03-14T12:48:02.166Z,19.84
2023-03-14T12:50:48.402Z,19.71
2023-03-14T12:54:08.974Z,19.67
2023-03-14T12:56:54.632Z,19.60
2023-03-14T12:59:33.305Z,19.36
2023-03-14T13:02:30.632Z,19.23
2023-03-14T13:05:12.390Z,19.17
2023-03-14T13:08:07.090Z,19.10
2023-03-14T13:10:47.504Z,19.02
2023-03-14T13:13:23.974Z,19.05
2023-03-14T13:16:01.368Z,19.08
2023-03-14T13:18:38.662Z,19.16
2023-03-14T13:21:17.755Z,19.16
2023-03-14T13:24:00.909Z,19.31
2023-03-14T13:26:38.611Z,19.35
2023-03-14T13:29:19.415Z,19.32
2023-03-14T13:31:57.676Z,19.32
2023-03-14T13:34:34.655Z,19.28
2023-03-14T13:37:18.421Z,19.25
2023-03-14T13:39:54.635Z,19.31
2023-03-14T13:42:32.955Z,19.20
2023-03-14T13:45:08.733Z,19.24
2023-03-14T13:47:44.085Z,19.33
2023-03-14T13:50:20.805Z,19.41
2023-03-14T13:52:59.123Z,19.44
2023-03-14T13:55:33.769Z,19.51
2023-03-14T13:58:23.072Z,19.62
2023-03-14T14:01:13.368Z,19.61
2023-03-14T14:03:52.140Z,19.56
2023-03-14T14:06:32.178Z,19.55
2023-03-14T14:09:14.493Z,19.61
2023-03-14T14:12:11.387Z,19.58
2023-03-14T14:14:55.830Z,19.58
2023-03-14T14:17:35.418Z,19.68
2023-03-14T14:20:18.954Z,19.66
2023-03-14T14:22:54.343Z,19.62
2023-03-14T14:25:30.421Z,19.56
2023-03-14T14:28:17.956Z,19.56
2023-03-14T14:31:05.160Z,19.42
2023-03-14T14:33:44.021Z,19.40
2023-03-14T14:36:23.157Z,19.36
2023-03-14T14:39:01.324Z,19.34
2023-03-14T14:41:41.820Z,19.29
2023-03-14T14:44:19.195Z,19.25
2023-03-14T14:46:57.087Z,19.17
2023-03-14T14:49:33.141Z,19.16
2023-03-14T14:52:14.939Z,19.03
2023-03-14T14:54:55.650Z,18.99
2023-03-14T14:57:37.168Z,18.85
2023-03-14T15:03:02.413Z,19.39
2023-03-14T15:05:38.122Z,19.39
2023-03-14T15:08:12.994Z,18.80
2023-03-14T15:10:47.684Z,18.68
2023-03-14T15:13:22.097Z,18.74
2023-03-14T15:15:57.297Z,18.69
2023-03-14T15:18:33.140Z,18.73
2023-03-14T15:21:08.024Z,18.64
2023-03-14T15:23:42.363Z,18.69
2023-03-14T15:26:19.846Z,18.62
2023-03-14T15:28:54.438Z,18.55
2023-03-14T15:31:29.231Z,18.47
2023-03-14T15:34:04.842Z,18.27
2023-03-14T15:36:41.375Z,18.18
2023-03-14T15:39:15.766Z,17.97
2023-03-14T15:41:50.515Z,17.90
2023-03-14T15:44:25.048Z,17.74
2023-03-14T15:46:59.699Z,17.71
2023-03-14T15:49:35.824Z,17.56
2023-03-14T15:52:10.982Z,17.27
2023-03-14T15:54:45.315Z,17.19
2023-03-14T15:57:19.802Z,17.06
2023-03-14T15:59:57.101Z,16.97
2023-03-14T16:02:31.611Z,16.84
2023-03-14T16:05:08.236Z,16.69
2023-03-14T16:07:42.794Z,16.53
2023-03-14T16:10:17.934Z,16.35
2023-03-14T16:12:52.316Z,16.08
2023-03-14T16:15:27.848Z,16.08
2023-03-14T16:18:09.128Z,15.97
2023-03-14T16:20:56.532Z,15.87
2023-03-14T16:23:31.571Z,15.73
2023-03-14T16:26:12.223Z,15.56
2023-03-14T16:28:47.527Z,15.49
2023-03-14T16:31:23.893Z,15.13
2023-03-14T16:34:03.707Z,14.88
2023-03-14T16:36:40.052Z,14.49
2023-03-14T16:39:14.522Z,14.34
2023-03-14T16:41:49.482Z,14.25
2023-03-14T16:44:23.821Z,14.08
2023-03-14T16:46:58.316Z,14.04
2023-03-14T16:49:32.899Z,13.88
2023-03-14T16:52:10.585Z,13.89
2023-03-14T16:54:44.742Z,13.85
2023-03-14T16:57:19.419Z,13.80
2023-03-14T16:59:55.023Z,13.69
2023-03-14T17:02:29.815Z,13.74
2023-03-14T17:05:04.302Z,13.77
2023-03-14T17:07:40.410Z,13.80
2023-03-14T17:10:15.647Z,13.76
2023-03-14T17:12:52.162Z,13.71
2023-03-14T17:15:26.543Z,13.75
2023-03-14T17:18:03.124Z,13.68
2023-03-14T17:20:37.447Z,13.72
2023-03-14T17:23:13.711Z,13.76
2023-03-14T17:25:50.426Z,13.57
2023-03-14T17:28:27.395Z,13.64
2023-03-14T17:31:08.631Z,13.96
2023-03-14T17:33:44.488Z,15.09
2023-03-14T17:36:19.439Z,14.62
2023-03-14T17:38:57.518Z,14.34
2023-03-14T17:41:32.696Z,14.15
2023-03-14T17:44:07.725Z,13.47
2023-03-14T17:46:41.987Z,13.66
2023-03-14T17:49:17.292Z,13.56
2023-03-14T17:51:52.069Z,13.13
2023-03-14T17:54:28.210Z,13.01
2023-03-14T17:57:02.597Z,12.92
2023-03-14T17:59:37.455Z,12.62
2023-03-14T18:02:12.559Z,12.74
2023-03-14T18:04:47.823Z,12.40
2023-03-14T18:07:22.782Z,12.33
2023-03-14T18:09:59.816Z,12.23
2023-03-14T18:12:34.527Z,12.53
2023-03-14T18:15:10.337Z,12.45
2023-03-14T18:17:44.988Z,12.52
2023-03-14T18:20:20.063Z,12.56
2023-03-14T18:22:55.727Z,12.35
2023-03-14T18:25:32.132Z,12.25
2023-03-14T18:28:06.736Z,12.35
2023-03-14T18:30:41.702Z,12.35
2023-03-14T18:33:16.510Z,12.32
2023-03-14T18:35:52.629Z,12.23
2023-03-14T18:38:27.984Z,12.25
2023-03-14T18:41:08.044Z,12.34
2023-03-14T18:43:44.167Z,12.28
2023-03-14T18:46:20.779Z,12.23
2023-03-14T18:48:57.483Z,12.16
2023-03-14T18:51:36.551Z,12.21
2023-03-14T18:54:12.665Z,12.22
2023-03-14T18:56:49.082Z,12.24
2023-03-14T18:59:23.433Z,12.15
2023-03-14T19:01:58.168Z,12.12
2023-03-14T19:04:32.940Z,12.12
2023-03-14T19:07:07.841Z,12.14
2023-03-14T19:09:43.085Z,12.09
2023-03-14T19:12:19.685Z,12.12
2023-03-14T19:14:54.280Z,12.01
2023-03-14T19:17:28.928Z,11.84
2023-03-14T19:20:04.038Z,11.76
2023-03-14T19:22:39.224Z,11.81
2023-03-14T19:25:13.778Z,11.97
2023-03-14T19:27:50.494Z,12.02
2023-03-14T19:30:25.231Z,12.02
2023-03-14T19:33:00.703Z,12.01
2023-03-14T19:35:37.445Z,11.93
2023-03-14T19:38:13.275Z,11.90
2023-03-14T19:40:50.523Z,11.81
2023-03-14T19:43:27.616Z,11.82
2023-03-14T19:46:02.391Z,11.58
2023-03-14T19:48:37.679Z,11.60
2023-03-14T19:51:14.310Z,11.69
2023-03-14T19:53:50.929Z,11.72
2023-03-14T19:56:25.245Z,11.79
2023-03-14T19:59:03.244Z,11.73
2023-03-14T20:01:38.938Z,11.60
2023-03-14T20:04:15.092Z,11.50
2023-03-14T20:06:49.644Z,11.42
2023-03-14T20:09:24.713Z,11.40
2023-03-14T20:11:59.325Z,11.40
2023-03-14T20:14:35.992Z,11.30
2023-03-14T20:17:10.811Z,11.36
2023-03-14T20:19:48.402Z,11.41
2023-03-14T20:22:22.947Z,11.55
2023-03-14T20:24:59.034Z,12.03
2023-03-14T20:27:34.522Z,11.94
2023-03-14T20:30:15.209Z,11.73
2023-03-14T20:32:52.100Z,11.60
2023-03-14T20:35:27.054Z,11.64
2023-03-14T20:38:02.413Z,12.08
2023-03-14T20:40:37.832Z,11.89
2023-03-14T20:43:12.286Z,11.83
2023-03-14T20:45:54.912Z,11.71
2023-03-14T20:48:32.681Z,11.62
2023-03-14T20:51:07.665Z,11.59
2023-03-14T20:53:42.555Z,11.59
2023-03-14T20:56:17.148Z,11.47
2023-03-14T20:58:51.465Z,11.54
2023-03-14T21:04:20.023Z,11.51
2023-03-14T21:06:55.573Z,11.48
2023-03-14T21:09:29.825Z,11.70
2023-03-14T21:12:05.214Z,12.80
2023-03-14T21:14:39.713Z,13.04
2023-03-14T21:17:15.826Z,13.16
2023-03-14T21:19:58.162Z,13.13
2023-03-14T21:22:32.941Z,12.63
2023-03-14T21:25:08.858Z,12.13
2023-03-14T21:27:43.588Z,11.78
2023-03-14T21:30:18.576Z,11.74
2023-03-14T21:32:54.858Z,11.48
2023-03-14T21:35:29.093Z,11.33
2023-03-14T21:38:03.894Z,11.20
2023-03-14T21:40:38.842Z,11.03
2023-03-14T21:43:15.707Z,11.11
2023-03-14T21:45:50.391Z,11.06
2023-03-14T21:48:26.947Z,11.24
2023-03-14T21:51:05.433Z,10.95
2023-03-14T21:53:40.884Z,10.97
2023-03-14T21:56:15.122Z,11.13
2023-03-14T21:58:49.786Z,11.07
2023-03-14T22:01:24.020Z,11.03
2023-03-14T22:04:00.456Z,11.02
2023-03-14T22:06:35.126Z,11.12
2023-03-14T22:09:10.390Z,11.05
2023-03-14T22:11:45.004Z,11.05
2023-03-14T22:14:19.644Z,11.02
2023-03-14T22:16:54.327Z,10.84
2023-03-14T22:19:31.223Z,10.81
2023-03-14T22:22:05.570Z,10.81
2023-03-14T22:24:40.120Z,10.86
2023-03-14T22:27:14.315Z,10.62
2023-03-14T22:29:49.664Z,10.80
2023-03-14T22:32:24.287Z,10.76
2023-03-14T22:35:00.146Z,10.91
2023-03-14T22:37:34.388Z,10.86
2023-03-14T22:40:12.623Z,10.78
2023-03-14T22:42:48.299Z,10.79
2023-03-14T22:45:23.046Z,10.59
2023-03-14T22:47:57.232Z,10.74
2023-03-14T23:02:55.760Z,11.05
2023-03-14T23:05:30.801Z,11.05
2023-03-14T23:08:05.151Z,10.69
2023-03-14T23:10:40.280Z,10.69
2023-03-14T23:13:15.397Z,10.49
2023-03-14T23:15:50.556Z,10.37
2023-03-14T23:18:27.787Z,10.51
2023-03-14T23:21:10.271Z,10.42
2023-03-14T23:23:48.717Z,10.51
2023-03-14T23:26:25.240Z,10.33
2023-03-14T23:28:59.432Z,10.39
2023-03-14T23:31:34.142Z,10.19
2023-03-14T23:34:10.958Z,10.14
2023-03-14T23:36:47.761Z,10.17
2023-03-14T23:39:22.250Z,10.12
2023-03-14T23:41:56.757Z,10.11
2023-03-14T23:44:31.322Z,10.06
2023-03-14T23:47:08.816Z,10.00
2023-03-14T23:49:45.483Z,10.02
2023-03-14T23:52:20.414Z,10.11
2023-03-14T23:54:54.815Z,9.98
2023-03-14T23:57:29.246Z,9.91
